METAR AND TAF INFORMATION
METAR FOR LICA
ADDS - METARS form results

(1616 UTC 02 July 2020)
Data provider http://aviationweather.gov/metar/data/
 
METAR text: LICA 021550Z AUTO 23008KT 9999 NCD 30/21 Q1009
Conditions at: LICA (LAMEZIA TERME , IT) observed 1550 UTC 02 July 2020
Temperature: 30.0°C (86°F)
Dewpoint: 21.0°C (70°F) [RH = 59%]
Pressure (altimeter): 29.79 inches Hg (1009.0 mb)
Winds: from the SW (230 degrees) at 9 MPH (8 knots; 4.1 m/s)
Visibility: 6 or more miles (10+ km)
Ceiling: at least 12,000 feet AGL
Clouds: sky clear below 12,000 feet AGL
Weather: no significant weather observed at this time

METAR text: LICA 021520Z AUTO 25008KT 9999 NCD 30/21 Q1010
Conditions at: LICA (LAMEZIA TERME , IT) observed 1520 UTC 02 July 2020
Temperature: 30.0°C (86°F)
Dewpoint: 21.0°C (70°F) [RH = 59%]
Pressure (altimeter): 29.82 inches Hg (1010.0 mb)
Winds: from the WSW (250 degrees) at 9 MPH (8 knots; 4.1 m/s)
Visibility: 6 or more miles (10+ km)
Ceiling: at least 12,000 feet AGL
Clouds: sky clear below 12,000 feet AGL
Weather: no significant weather observed at this time

Forecast for: LICA (LAMEZIA TERME , IT)
Text: TAF LICA 021100Z 0212/0312 29012KT CAVOK
Forecast period: 1200 to 1700 UTC 02 July 2020
Forecast type: FROM: standard forecast or significant change
Winds: from the WNW (290 degrees) at 14 MPH (12 knots; 6.2 m/s)
Visibility: 6 or more miles 10+ km)
Ceiling: unknown
Clouds: missing
Weather: NSW  (no significant weather)
Text: BECMG 0217/0219 VRB05KT
Forecast period: 1700 UTC 02 July 2020 to 0600 UTC 03 July 2020
Forecast type: BECOMING: Conditions expected to become as follows by 1900 UTC 02 July 2020
Winds: variable direction winds at 6 MPH (5 knots; 2.6 m/s)
Visibility: 6 or more miles 10+ km)
Ceiling: unknown
Clouds: missing
Weather: NSW  (no significant weather)
Text: BECMG 0306/0308 28012KT
Forecast period: 0600 to 1200 UTC 03 July 2020
Forecast type: BECOMING: Conditions expected to become as follows by 0800 UTC 03 July 2020
Winds: from the W (280 degrees) at 14 MPH (12 knots; 6.2 m/s)
Visibility: 6 or more miles 10+ km)
Ceiling: unknown
Clouds: missing
Weather: NSW  (no significant weather)

 AIRPORT MAP

 RUNWAY INFORMATION
Runway 10 Runway length 7920 ft Runway width 148 ft
Runway elevation 20 ft Runway displaced threshold 348 ft Runway heading 99
Runway 28 Runway length 7920 ft Runway width 148 ft
Runway elevation 39 ft Runway displaced threshold 351 ft Runway heading 279

 AIRPORT FREQUENCIES
Type APP Name APP Frequency 118.8 MHZ
Type TWR Name TWR Frequency 119.7 MHZ

 AIRPORT NEAR NAVIGATION AIDS
Type VOR-DME Name Lamezia Terme Frequency 112500 KHZ



Powered by Virtual Airlines Manager [v2.6.2]